sensor_id;sensor_type;location;lat;lon;timestamp;pressure;altitude;pressure_sealevel;temperature;humidity
51759;BME280;66684;47.568;18.734;2023-07-02T00:01:47;98548.53;;;18.18;100.00
51759;BME280;66684;47.568;18.734;2023-07-02T00:04:14;98541.62;;;18.08;100.00
51759;BME280;66684;47.568;18.734;2023-07-02T00:06:43;98545.16;;;18.01;100.00
51759;BME280;66684;47.568;18.734;2023-07-02T00:09:09;98554.75;;;17.97;100.00
51759;BME280;66684;47.568;18.734;2023-07-02T00:11:39;98547.78;;;18.04;100.00
51759;BME280;66684;47.568;18.734;2023-07-02T00:14:06;98547.69;;;18.18;100.00
51759;BME280;66684;47.568;18.734;2023-07-02T00:16:32;98546.94;;;17.99;100.00
51759;BME280;66684;47.568;18.734;2023-07-02T00:18:58;98539.94;;;18.01;100.00
51759;BME280;66684;47.568;18.734;2023-07-02T00:21:28;98543.41;;;18.06;100.00
51759;BME280;66684;47.568;18.734;2023-07-02T00:23:55;98546.81;;;18.14;100.00
51759;BME280;66684;47.568;18.734;2023-07-02T00:26:23;98552.00;;;18.23;100.00
51759;BME280;66684;47.568;18.734;2023-07-02T00:28:51;98544.13;;;18.26;100.00
51759;BME280;66684;47.568;18.734;2023-07-02T00:31:17;98550.16;;;18.38;100.00
51759;BME280;66684;47.568;18.734;2023-07-02T00:33:43;98548.38;;;18.40;100.00
51759;BME280;66684;47.568;18.734;2023-07-02T00:36:09;98544.91;;;18.38;100.00
51759;BME280;66684;47.568;18.734;2023-07-02T00:38:48;98550.84;;;18.61;100.00
51759;BME280;66684;47.568;18.734;2023-07-02T00:41:14;98551.66;;;18.69;100.00
51759;BME280;66684;47.568;18.734;2023-07-02T00:43:40;98555.16;;;18.68;100.00
51759;BME280;66684;47.568;18.734;2023-07-02T00:46:11;98549.84;;;18.77;100.00
51759;BME280;66684;47.568;18.734;2023-07-02T00:48:39;98542.88;;;18.76;100.00
51759;BME280;66684;47.568;18.734;2023-07-02T00:51:06;98549.81;;;18.80;100.00
51759;BME280;66684;47.568;18.734;2023-07-02T00:53:32;98549.81;;;18.80;100.00
51759;BME280;66684;47.568;18.734;2023-07-02T00:55:58;98549.75;;;18.88;100.00
51759;BME280;66684;47.568;18.734;2023-07-02T00:58:24;98548.03;;;18.82;100.00
51759;BME280;66684;47.568;18.734;2023-07-02T01:00:50;98544.50;;;18.88;100.00
51759;BME280;66684;47.568;18.734;2023-07-02T01:03:16;98548.88;;;18.84;100.00
51759;BME280;66684;47.568;18.734;2023-07-02T01:05:42;98549.81;;;18.80;100.00
51759;BME280;66684;47.568;18.734;2023-07-02T01:08:08;98551.66;;;18.69;100.00
51759;BME280;66684;47.568;18.734;2023-07-02T01:10:34;98555.28;;;18.47;100.00
51759;BME280;66684;47.568;18.734;2023-07-02T01:13:10;98555.44;;;18.27;100.00
51759;BME280;66684;47.568;18.734;2023-07-02T01:15:38;98560.50;;;18.50;100.00
51759;BME280;66684;47.568;18.734;2023-07-02T01:18:05;98556.06;;;18.61;100.00
51759;BME280;66684;47.568;18.734;2023-07-02T01:20:33;98560.37;;;18.67;100.00
51759;BME280;66684;47.568;18.734;2023-07-02T01:23:01;98565.75;;;18.50;100.00
51759;BME280;66684;47.568;18.734;2023-07-02T01:25:29;98562.47;;;18.20;100.00
51759;BME280;66684;47.568;18.734;2023-07-02T01:27:55;98559.94;;;18.08;100.00
51759;BME280;66684;47.568;18.734;2023-07-02T01:30:22;98566.09;;;17.96;100.00
51759;BME280;66684;47.568;18.734;2023-07-02T01:32:48;98560.87;;;17.98;100.00
51759;BME280;66684;47.568;18.734;2023-07-02T01:35:13;98567.06;;;17.82;100.00
51759;BME280;66684;47.568;18.734;2023-07-02T01:37:41;98559.25;;;17.65;100.00
51759;BME280;66684;47.568;18.734;2023-07-02T01:40:07;98552.28;;;17.74;100.00
51759;BME280;66684;47.568;18.734;2023-07-02T01:42:34;98549.78;;;17.45;100.00
51759;BME280;66684;47.568;18.734;2023-07-02T01:45:00;98554.19;;;17.26;100.00
51759;BME280;66684;47.568;18.734;2023-07-02T01:47:26;98556.81;;;17.30;100.00
51759;BME280;66684;47.568;18.734;2023-07-02T01:49:52;98553.31;;;17.26;100.00
51759;BME280;66684;47.568;18.734;2023-07-02T01:52:17;98562.03;;;17.25;100.00
51759;BME280;66684;47.568;18.734;2023-07-02T01:54:45;98560.28;;;17.21;100.00
51759;BME280;66684;47.568;18.734;2023-07-02T01:57:11;98563.81;;;17.17;100.00
51759;BME280;66684;47.568;18.734;2023-07-02T01:59:37;98553.34;;;17.14;100.00
51759;BME280;66684;47.568;18.734;2023-07-02T02:02:02;98564.66;;;17.20;100.00
51759;BME280;66684;47.568;18.734;2023-07-02T02:04:28;98565.53;;;17.18;100.00
51759;BME280;66684;47.568;18.734;2023-07-02T02:06:55;98562.94;;;17.10;100.00
51759;BME280;66684;47.568;18.734;2023-07-02T02:09:21;98562.06;;;17.11;100.00
51759;BME280;66684;47.568;18.734;2023-07-02T02:11:50;98561.22;;;17.00;100.00
51759;BME280;66684;47.568;18.734;2023-07-02T02:14:18;98563.84;;;17.05;100.00
51759;BME280;66684;47.568;18.734;2023-07-02T02:16:44;98554.25;;;17.11;100.00
51759;BME280;66684;47.568;18.734;2023-07-02T02:19:13;98555.06;;;17.21;100.00
51759;BME280;66684;47.568;18.734;2023-07-02T02:21:41;98550.72;;;17.24;100.00
51759;BME280;66684;47.568;18.734;2023-07-02T02:24:07;98555.09;;;17.22;100.00
51759;BME280;66684;47.568;18.734;2023-07-02T02:26:34;98555.97;;;17.12;100.00
51759;BME280;66684;47.568;18.734;2023-07-02T02:29:00;98555.97;;;17.18;100.00
51759;BME280;66684;47.568;18.734;2023-07-02T02:31:25;98554.16;;;17.33;100.00
51759;BME280;66684;47.568;18.734;2023-07-02T02:33:51;98548.81;;;17.66;100.00
51759;BME280;66684;47.568;18.734;2023-07-02T02:36:17;98551.44;;;17.63;100.00
51759;BME280;66684;47.568;18.734;2023-07-02T02:38:43;98547.09;;;17.59;100.00
51759;BME280;66684;47.568;18.734;2023-07-02T02:41:09;98547.09;;;17.59;100.00
51759;BME280;66684;47.568;18.734;2023-07-02T02:43:35;98546.25;;;17.52;100.00
51759;BME280;66684;47.568;18.734;2023-07-02T02:46:01;98547.00;;;17.84;100.00
51759;BME280;66684;47.568;18.734;2023-07-02T02:48:27;98545.22;;;17.98;100.00
51759;BME280;66684;47.568;18.734;2023-07-02T02:50:53;98545.09;;;18.10;100.00
51759;BME280;66684;47.568;18.734;2023-07-02T02:53:18;98543.41;;;18.06;100.00
51759;BME280;66684;47.568;18.734;2023-07-02T02:55:44;98545.97;;;18.09;100.00
51759;BME280;66684;47.568;18.734;2023-07-02T02:58:10;98540.72;;;18.17;100.00
51759;BME280;66684;47.568;18.734;2023-07-02T03:00:36;98544.19;;;18.17;100.00
51759;BME280;66684;47.568;18.734;2023-07-02T03:03:03;98545.00;;;18.22;100.00
51759;BME280;66684;47.568;18.734;2023-07-02T03:05:29;98552.00;;;18.20;100.00
51759;BME280;66684;47.568;18.734;2023-07-02T03:07:55;98542.44;;;18.18;100.00
51759;BME280;66684;47.568;18.734;2023-07-02T03:10:21;98538.81;;;18.37;100.00
51759;BME280;66684;47.568;18.734;2023-07-02T03:12:47;98543.09;;;18.46;100.00
51759;BME280;66684;47.568;18.734;2023-07-02T03:15:13;98544.78;;;18.56;100.00
51759;BME280;66684;47.568;18.734;2023-07-02T03:17:39;98548.22;;;18.59;100.00
51759;BME280;66684;47.568;18.734;2023-07-02T03:20:06;98544.78;;;18.53;100.00
51759;BME280;66684;47.568;18.734;2023-07-02T03:22:34;98550.06;;;18.47;100.00
51759;BME280;66684;47.568;18.734;2023-07-02T03:25:00;98546.63;;;18.42;100.00
51759;BME280;66684;47.568;18.734;2023-07-02T03:27:26;98550.06;;;18.50;100.00
51759;BME280;66684;47.568;18.734;2023-07-02T03:29:52;98552.59;;;18.57;100.00
51759;BME280;66684;47.568;18.734;2023-07-02T03:32:18;98553.47;;;18.56;100.00
51759;BME280;66684;47.568;18.734;2023-07-02T03:34:44;98548.31;;;18.46;100.00
51759;BME280;66684;47.568;18.734;2023-07-02T03:37:10;98550.97;;;18.44;100.00
51759;BME280;66684;47.568;18.734;2023-07-02T03:39:36;98553.56;;;18.49;100.00
51759;BME280;66684;47.568;18.734;2023-07-02T03:42:02;98554.31;;;18.63;100.00
51759;BME280;66684;47.568;18.734;2023-07-02T03:44:27;98553.41;;;18.64;100.00
51759;BME280;66684;47.568;18.734;2023-07-02T03:46:53;98553.31;;;18.79;100.00
51759;BME280;66684;47.568;18.734;2023-07-02T03:49:19;98561.34;;;18.56;100.00
51759;BME280;66684;47.568;18.734;2023-07-02T03:51:45;98564.88;;;18.49;100.00
51759;BME280;66684;47.568;18.734;2023-07-02T03:54:11;98556.97;;;18.54;100.00
51759;BME280;66684;47.568;18.734;2023-07-02T03:56:37;98557.88;;;18.54;100.00
51759;BME280;66684;47.568;18.734;2023-07-02T03:59:03;98556.91;;;18.69;100.00
51759;BME280;66684;47.568;18.734;2023-07-02T04:01:29;98550.69;;;18.78;100.00
51759;BME280;66684;47.568;18.734;2023-07-02T04:03:56;98556.91;;;18.69;100.00
51759;BME280;66684;47.568;18.734;2023-07-02T04:06:22;98554.28;;;18.69;100.00
51759;BME280;66684;47.568;18.734;2023-07-02T04:08:48;98553.34;;;18.76;100.00
51759;BME280;66684;47.568;18.734;2023-07-02T04:11:14;98567.25;;;18.78;100.00
51759;BME280;66684;47.568;18.734;2023-07-02T04:13:40;98561.97;;;18.84;100.00
51759;BME280;66684;47.568;18.734;2023-07-02T04:16:07;98564.59;;;18.86;100.00
51759;BME280;66684;47.568;18.734;2023-07-02T04:18:33;98563.66;;;18.92;100.00
51759;BME280;66684;47.568;18.734;2023-07-02T04:20:59;98566.22;;;18.96;100.00
51759;BME280;66684;47.568;18.734;2023-07-02T04:23:25;98577.56;;;19.00;100.00
51759;BME280;66684;47.568;18.734;2023-07-02T04:25:51;98575.69;;;19.09;100.00
51759;BME280;66684;47.568;18.734;2023-07-02T04:28:17;98568.72;;;19.10;100.00
51759;BME280;66684;47.568;18.734;2023-07-02T04:30:44;98580.06;;;19.09;100.00
51759;BME280;66684;47.568;18.734;2023-07-02T04:33:11;98583.50;;;19.16;100.00
51759;BME280;66684;47.568;18.734;2023-07-02T04:35:39;98583.41;;;19.25;100.00
51759;BME280;66684;47.568;18.734;2023-07-02T04:38:05;98589.41;;;19.34;100.00
51759;BME280;66684;47.568;18.734;2023-07-02T04:40:32;98593.72;;;19.38;100.00
51759;BME280;66684;47.568;18.734;2023-07-02T04:42:58;98598.94;;;19.43;99.63
51759;BME280;66684;47.568;18.734;2023-07-02T04:45:25;98593.63;;;19.49;99.11
51759;BME280;66684;47.568;18.734;2023-07-02T04:47:51;98590.91;;;19.54;99.00
51759;BME280;66684;47.568;18.734;2023-07-02T04:50:18;98599.75;;;19.47;100.00
51759;BME280;66684;47.568;18.734;2023-07-02T04:52:44;98604.97;;;19.50;99.79
51759;BME280;66684;47.568;18.734;2023-07-02T04:55:10;98605.84;;;19.50;99.86
51759;BME280;66684;47.568;18.734;2023-07-02T04:57:37;98598.72;;;19.63;97.62
51759;BME280;66684;47.568;18.734;2023-07-02T05:00:04;98610.88;;;19.70;98.14
51759;BME280;66684;47.568;18.734;2023-07-02T05:02:31;98604.59;;;19.83;96.34
51759;BME280;66684;47.568;18.734;2023-07-02T05:04:57;98607.47;;;19.63;97.21
51759;BME280;66684;47.568;18.734;2023-07-02T05:07:23;98614.50;;;19.57;97.95
51759;BME280;66684;47.568;18.734;2023-07-02T05:09:49;98605.56;;;19.76;97.71
51759;BME280;66684;47.568;18.734;2023-07-02T05:12:17;98618.44;;;19.94;95.11
51759;BME280;66684;47.568;18.734;2023-07-02T05:14:44;98614.00;;;19.98;93.81
51759;BME280;66684;47.568;18.734;2023-07-02T05:17:09;98616.88;;;19.78;96.54
51759;BME280;66684;47.568;18.734;2023-07-02T05:19:35;98619.31;;;19.92;95.29
51759;BME280;66684;47.568;18.734;2023-07-02T05:22:01;98618.38;;;19.98;93.72
51759;BME280;66684;47.568;18.734;2023-07-02T05:24:27;98618.44;;;19.94;94.96
51759;BME280;66684;47.568;18.734;2023-07-02T05:26:53;98617.66;;;19.86;95.50
51759;BME280;66684;47.568;18.734;2023-07-02T05:29:19;98615.06;;;19.83;97.05
51759;BME280;66684;47.568;18.734;2023-07-02T05:31:45;98623.69;;;19.94;95.62
51759;BME280;66684;47.568;18.734;2023-07-02T05:34:10;98621.72;;;20.09;95.35
51759;BME280;66684;47.568;18.734;2023-07-02T05:36:37;98625.28;;;20.05;94.94
51759;BME280;66684;47.568;18.734;2023-07-02T05:39:03;98628.69;;;20.13;95.20
51759;BME280;66684;47.568;18.734;2023-07-02T05:41:29;98627.91;;;20.05;96.20
51759;BME280;66684;47.568;18.734;2023-07-02T05:43:59;98623.28;;;20.25;95.15
51759;BME280;66684;47.568;18.734;2023-07-02T05:46:25;98628.34;;;20.37;93.76
51759;BME280;66684;47.568;18.734;2023-07-02T05:48:51;98625.19;;;20.72;89.43
51759;BME280;66684;47.568;18.734;2023-07-02T05:51:21;98633.31;;;21.10;84.06
51759;BME280;66684;47.568;18.734;2023-07-02T05:53:47;98628.16;;;21.54;80.67
51759;BME280;66684;47.568;18.734;2023-07-02T05:56:14;98633.75;;;21.83;78.81
51759;BME280;66684;47.568;18.734;2023-07-02T05:58:39;98641.84;;;21.72;77.93
51759;BME280;66684;47.568;18.734;2023-07-02T06:01:05;98640.72;;;21.84;77.83
51759;BME280;66684;47.568;18.734;2023-07-02T06:03:32;98640.09;;;22.16;74.76
51759;BME280;66684;47.568;18.734;2023-07-02T06:05:58;98638.50;;;22.05;75.39
51759;BME280;66684;47.568;18.734;2023-07-02T06:08:24;98637.22;;;22.26;73.04
51759;BME280;66684;47.568;18.734;2023-07-02T06:10:50;98643.91;;;22.41;73.17
51759;BME280;66684;47.568;18.734;2023-07-02T06:13:16;98641.75;;;22.58;72.51
51759;BME280;66684;47.568;18.734;2023-07-02T06:15:43;98647.59;;;22.34;70.84
51759;BME280;66684;47.568;18.734;2023-07-02T06:18:09;98653.13;;;22.22;73.44
51759;BME280;66684;47.568;18.734;2023-07-02T06:20:35;98641.09;;;22.08;74.81
51759;BME280;66684;47.568;18.734;2023-07-02T06:23:01;98650.53;;;22.20;74.99
51759;BME280;66684;47.568;18.734;2023-07-02T06:25:26;98639.72;;;22.32;74.28
51759;BME280;66684;47.568;18.734;2023-07-02T06:27:52;98651.63;;;22.08;76.92
51759;BME280;66684;47.568;18.734;2023-07-02T06:30:24;98650.94;;;21.99;76.38
51759;BME280;66684;47.568;18.734;2023-07-02T06:32:50;98656.81;;;22.13;74.67
51759;BME280;66684;47.568;18.734;2023-07-02T06:35:16;98655.97;;;22.11;74.48
51759;BME280;66684;47.568;18.734;2023-07-02T06:37:42;98657.91;;;22.00;75.15
51759;BME280;66684;47.568;18.734;2023-07-02T06:40:09;98659.47;;;22.13;75.18
51759;BME280;66684;47.568;18.734;2023-07-02T06:42:35;98656.38;;;22.33;75.11
51759;BME280;66684;47.568;18.734;2023-07-02T06:45:04;98663.44;;;22.31;74.81
51759;BME280;66684;47.568;18.734;2023-07-02T06:47:30;98663.16;;;22.43;73.51
51759;BME280;66684;47.568;18.734;2023-07-02T06:49:56;98665.91;;;22.39;75.17
51759;BME280;66684;47.568;18.734;2023-07-02T06:52:22;98678.41;;;22.69;73.14
51759;BME280;66684;47.568;18.734;2023-07-02T06:54:48;98673.03;;;22.72;71.55
51759;BME280;66684;47.568;18.734;2023-07-02T06:57:14;98663.00;;;22.90;70.95
51759;BME280;66684;47.568;18.734;2023-07-02T06:59:39;98670.97;;;22.88;70.16
51759;BME280;66684;47.568;18.734;2023-07-02T07:02:06;98676.22;;;22.88;69.01
51759;BME280;66684;47.568;18.734;2023-07-02T07:04:32;98668.28;;;23.24;68.22
51759;BME280;66684;47.568;18.734;2023-07-02T07:06:58;98671.94;;;23.20;68.74
51759;BME280;66684;47.568;18.734;2023-07-02T07:09:23;98680.50;;;23.28;69.90
51759;BME280;66684;47.568;18.734;2023-07-02T07:11:50;98671.69;;;23.29;69.38
51759;BME280;66684;47.568;18.734;2023-07-02T07:14:16;98675.44;;;23.19;69.31
51759;BME280;66684;47.568;18.734;2023-07-02T07:16:42;98674.16;;;22.99;70.41
51759;BME280;66684;47.568;18.734;2023-07-02T07:19:08;98685.06;;;22.84;70.80
51759;BME280;66684;47.568;18.734;2023-07-02T07:21:34;98682.22;;;22.54;73.74
51759;BME280;66684;47.568;18.734;2023-07-02T07:24:00;98683.63;;;22.71;72.09
51759;BME280;66684;47.568;18.734;2023-07-02T07:26:26;98690.66;;;22.70;72.97
51759;BME280;66684;47.568;18.734;2023-07-02T07:28:52;98687.63;;;22.87;70.32
51759;BME280;66684;47.568;18.734;2023-07-02T07:31:21;98695.88;;;22.72;69.88
51759;BME280;66684;47.568;18.734;2023-07-02T07:33:47;98694.06;;;22.74;69.49
51759;BME280;66684;47.568;18.734;2023-07-02T07:36:13;98696.16;;;22.59;69.25
51759;BME280;66684;47.568;18.734;2023-07-02T07:38:39;98699.59;;;22.61;69.59
51759;BME280;66684;47.568;18.734;2023-07-02T07:41:05;98694.00;;;22.38;69.39
51759;BME280;66684;47.568;18.734;2023-07-02T07:43:31;98698.06;;;22.11;71.17
51759;BME280;66684;47.568;18.734;2023-07-02T07:45:57;98702.12;;;22.27;71.55
51759;BME280;66684;47.568;18.734;2023-07-02T07:48:24;98699.97;;;22.46;72.36
51759;BME280;66684;47.568;18.734;2023-07-02T07:50:50;98696.97;;;22.61;70.50
51759;BME280;66684;47.568;18.734;2023-07-02T07:53:15;98710.41;;;22.49;71.46
51759;BME280;66684;47.568;18.734;2023-07-02T07:58:26;98705.13;;;23.27;69.11
51759;BME280;66684;47.568;18.734;2023-07-02T08:00:52;98699.84;;;23.61;68.54
51759;BME280;66684;47.568;18.734;2023-07-02T08:03:18;98708.28;;;23.41;63.52
51759;BME280;66684;47.568;18.734;2023-07-02T08:05:43;98711.41;;;23.55;64.38
51759;BME280;66684;47.568;18.734;2023-07-02T08:08:09;98707.56;;;23.68;64.73
51759;BME280;66684;47.568;18.734;2023-07-02T08:10:35;98712.25;;;23.57;65.24
51759;BME280;66684;47.568;18.734;2023-07-02T08:13:01;98711.72;;;23.45;66.08
51759;BME280;66684;47.568;18.734;2023-07-02T08:15:27;98712.34;;;23.19;66.68
51759;BME280;66684;47.568;18.734;2023-07-02T08:17:53;98714.34;;;23.45;67.25
51759;BME280;66684;47.568;18.734;2023-07-02T08:20:20;98716.66;;;23.23;67.24
51759;BME280;66684;47.568;18.734;2023-07-02T08:22:46;98717.31;;;23.31;68.00
51759;BME280;66684;47.568;18.734;2023-07-02T08:25:12;98705.84;;;23.67;65.64
51759;BME280;66684;47.568;18.734;2023-07-02T08:27:38;98710.47;;;23.92;68.20
51759;BME280;66684;47.568;18.734;2023-07-02T08:30:04;98705.91;;;24.28;64.88
51759;BME280;66684;47.568;18.734;2023-07-02T08:32:30;98716.97;;;24.42;65.62
51759;BME280;66684;47.568;18.734;2023-07-02T08:34:58;98719.09;;;24.59;64.03
51759;BME280;66684;47.568;18.734;2023-07-02T08:37:24;98716.72;;;24.80;64.91
51759;BME280;66684;47.568;18.734;2023-07-02T08:39:49;98716.41;;;24.89;64.33
51759;BME280;66684;47.568;18.734;2023-07-02T08:42:15;98727.56;;;24.70;61.59
51759;BME280;66684;47.568;18.734;2023-07-02T08:44:45;98717.28;;;24.61;62.96
51759;BME280;66684;47.568;18.734;2023-07-02T08:47:12;98714.50;;;24.66;61.42
51759;BME280;66684;47.568;18.734;2023-07-02T08:49:38;98719.19;;;24.56;61.57
51759;BME280;66684;47.568;18.734;2023-07-02T08:52:04;98717.81;;;24.72;61.29
51759;BME280;66684;47.568;18.734;2023-07-02T08:54:30;98731.88;;;24.73;62.54
51759;BME280;66684;47.568;18.734;2023-07-02T08:56:57;98728.34;;;25.02;63.33
51759;BME280;66684;47.568;18.734;2023-07-02T08:59:23;98735.56;;;24.97;62.66
51759;BME280;66684;47.568;18.734;2023-07-02T09:01:51;98717.41;;;25.14;58.15
51759;BME280;66684;47.568;18.734;2023-07-02T09:06:43;98726.34;;;25.10;60.45
51759;BME280;66684;47.568;18.734;2023-07-02T09:09:09;98728.25;;;25.33;60.02
51759;BME280;66684;47.568;18.734;2023-07-02T09:11:46;98723.13;;;24.99;57.88
51759;BME280;66684;47.568;18.734;2023-07-02T09:14:29;98725.34;;;24.85;59.45
51759;BME280;66684;47.568;18.734;2023-07-02T09:17:05;98728.97;;;25.10;59.27
51759;BME280;66684;47.568;18.734;2023-07-02T09:19:32;98723.81;;;25.34;60.81
51759;BME280;66684;47.568;18.734;2023-07-02T09:21:59;98725.41;;;25.38;57.27
51759;BME280;66684;47.568;18.734;2023-07-02T09:24:30;98727.66;;;25.50;56.31
51759;BME280;66684;47.568;18.734;2023-07-02T09:27:01;98731.53;;;25.66;58.86
51759;BME280;66684;47.568;18.734;2023-07-02T09:29:28;98737.81;;;25.89;58.51
51759;BME280;66684;47.568;18.734;2023-07-02T09:32:04;98740.16;;;25.71;57.91
51759;BME280;66684;47.568;18.734;2023-07-02T09:34:34;98736.59;;;25.72;58.07
51759;BME280;66684;47.568;18.734;2023-07-02T09:37:01;98730.06;;;25.82;56.47
51759;BME280;66684;47.568;18.734;2023-07-02T09:39:30;98736.41;;;25.78;56.29
51759;BME280;66684;47.568;18.734;2023-07-02T09:41:57;98736.91;;;25.63;57.73
51759;BME280;66684;47.568;18.734;2023-07-02T09:44:31;98737.31;;;25.51;57.59
51759;BME280;66684;47.568;18.734;2023-07-02T09:47:06;98733.66;;;25.55;58.88
51759;BME280;66684;47.568;18.734;2023-07-02T09:49:37;98729.88;;;25.89;60.57
51759;BME280;66684;47.568;18.734;2023-07-02T09:52:05;98740.28;;;25.93;56.85
51759;BME280;66684;47.568;18.734;2023-07-02T09:54:32;98735.09;;;25.65;55.88
51759;BME280;66684;47.568;18.734;2023-07-02T09:57:01;98723.72;;;25.88;56.37
51759;BME280;66684;47.568;18.734;2023-07-02T09:59:28;98731.62;;;26.13;58.50
51759;BME280;66684;47.568;18.734;2023-07-02T10:01:54;98734.81;;;26.48;55.39
51759;BME280;66684;47.568;18.734;2023-07-02T10:04:21;98735.22;;;26.12;56.65
51759;BME280;66684;47.568;18.734;2023-07-02T10:06:52;98722.63;;;25.94;55.47
51759;BME280;66684;47.568;18.734;2023-07-02T10:12:25;98736.19;;;26.09;54.73
51759;BME280;66684;47.568;18.734;2023-07-02T10:14:54;98735.25;;;26.59;54.97
51759;BME280;66684;47.568;18.734;2023-07-02T10:17:28;98730.25;;;26.03;55.14
51759;BME280;66684;47.568;18.734;2023-07-02T10:19:55;98736.94;;;26.13;56.22
51759;BME280;66684;47.568;18.734;2023-07-02T10:22:22;98732.44;;;26.39;56.30
51759;BME280;66684;47.568;18.734;2023-07-02T10:24:55;98737.63;;;26.43;53.09
51759;BME280;66684;47.568;18.734;2023-07-02T10:27:41;98736.37;;;26.52;54.19
51759;BME280;66684;47.568;18.734;2023-07-02T10:30:08;98741.09;;;25.95;54.17
51759;BME280;66684;47.568;18.734;2023-07-02T10:32:36;98740.88;;;25.50;55.47
51759;BME280;66684;47.568;18.734;2023-07-02T10:35:16;98737.97;;;25.58;53.71
51759;BME280;66684;47.568;18.734;2023-07-02T10:37:43;98728.28;;;25.83;53.22
51759;BME280;66684;47.568;18.734;2023-07-02T10:40:10;98731.62;;;25.90;51.93
51759;BME280;66684;47.568;18.734;2023-07-02T10:42:56;98725.12;;;25.73;53.03
51759;BME280;66684;47.568;18.734;2023-07-02T10:45:31;98720.63;;;25.75;51.25
51759;BME280;66684;47.568;18.734;2023-07-02T10:47:58;98739.28;;;25.46;53.42
51759;BME280;66684;47.568;18.734;2023-07-02T10:50:24;98732.41;;;25.92;53.93
51759;BME280;66684;47.568;18.734;2023-07-02T10:52:52;98732.50;;;26.14;53.51
51759;BME280;66684;47.568;18.734;2023-07-02T10:55:22;98731.81;;;26.08;53.50
51759;BME280;66684;47.568;18.734;2023-07-02T10:57:50;98739.66;;;25.87;53.75
51759;BME280;66684;47.568;18.734;2023-07-02T11:00:17;98739.31;;;25.96;53.71
51759;BME280;66684;47.568;18.734;2023-07-02T11:02:43;98743.44;;;26.04;53.47
51759;BME280;66684;47.568;18.734;2023-07-02T11:05:09;98739.66;;;25.87;55.42
51759;BME280;66684;47.568;18.734;2023-07-02T11:07:39;98746.28;;;26.23;52.66
51759;BME280;66684;47.568;18.734;2023-07-02T11:10:06;98731.47;;;26.18;54.49
51759;BME280;66684;47.568;18.734;2023-07-02T11:12:33;98742.22;;;26.13;55.62
51759;BME280;66684;47.568;18.734;2023-07-02T11:15:12;98735.37;;;26.07;54.43
51759;BME280;66684;47.568;18.734;2023-07-02T11:17:39;98724.91;;;25.79;54.18
51759;BME280;66684;47.568;18.734;2023-07-02T11:20:10;98732.31;;;25.68;56.44
51759;BME280;66684;47.568;18.734;2023-07-02T11:22:37;98724.50;;;25.65;57.16
51759;BME280;66684;47.568;18.734;2023-07-02T11:25:16;98719.87;;;25.97;55.93
51759;BME280;66684;47.568;18.734;2023-07-02T11:27:43;98715.41;;;26.22;54.99
51759;BME280;66684;47.568;18.734;2023-07-02T11:30:10;98720.56;;;26.02;53.21
51759;BME280;66684;47.568;18.734;2023-07-02T11:32:53;98705.44;;;26.54;51.26
51759;BME280;66684;47.568;18.734;2023-07-02T11:35:21;98709.88;;;26.53;52.48
51759;BME280;66684;47.568;18.734;2023-07-02T11:37:47;98704.56;;;26.75;53.29
51759;BME280;66684;47.568;18.734;2023-07-02T11:40:17;98718.25;;;26.65;51.65
51759;BME280;66684;47.568;18.734;2023-07-02T11:42:43;98707.66;;;26.86;50.80
51759;BME280;66684;47.568;18.734;2023-07-02T11:45:09;98706.63;;;27.34;49.98
51759;BME280;66684;47.568;18.734;2023-07-02T11:47:37;98704.78;;;27.14;49.18
51759;BME280;66684;47.568;18.734;2023-07-02T11:50:05;98700.75;;;27.26;50.27
51759;BME280;66684;47.568;18.734;2023-07-02T11:52:31;98712.59;;;27.39;49.93
51759;BME280;66684;47.568;18.734;2023-07-02T11:54:57;98707.28;;;26.96;50.22
51759;BME280;66684;47.568;18.734;2023-07-02T11:57:22;98714.97;;;27.25;50.28
51759;BME280;66684;47.568;18.734;2023-07-02T11:59:48;98715.22;;;26.27;53.07
51759;BME280;66684;47.568;18.734;2023-07-02T12:02:15;98717.62;;;26.34;52.93
51759;BME280;66684;47.568;18.734;2023-07-02T12:04:41;98711.34;;;26.82;50.32
51759;BME280;66684;47.568;18.734;2023-07-02T12:07:07;98715.81;;;27.26;49.04
51759;BME280;66684;47.568;18.734;2023-07-02T12:09:33;98704.59;;;27.41;47.42
51759;BME280;66684;47.568;18.734;2023-07-02T12:11:59;98716.19;;;27.59;46.98
51759;BME280;66684;47.568;18.734;2023-07-02T12:14:24;98732.41;;;26.63;49.56
51759;BME280;66684;47.568;18.734;2023-07-02T12:16:50;98716.03;;;26.54;50.24
51759;BME280;66684;47.568;18.734;2023-07-02T12:19:16;98710.72;;;26.54;50.20
51759;BME280;66684;47.568;18.734;2023-07-02T12:21:42;98715.94;;;26.08;51.54
51759;BME280;66684;47.568;18.734;2023-07-02T12:24:08;98718.06;;;26.46;52.46
51759;BME280;66684;47.568;18.734;2023-07-02T12:26:39;98709.34;;;26.44;51.90
51759;BME280;66684;47.568;18.734;2023-07-02T12:29:05;98707.44;;;26.93;52.43
51759;BME280;66684;47.568;18.734;2023-07-02T12:31:31;98706.91;;;27.49;49.74
51759;BME280;66684;47.568;18.734;2023-07-02T12:33:57;98714.44;;;27.37;48.62
51759;BME280;66684;47.568;18.734;2023-07-02T12:36:24;98704.19;;;26.62;51.09
51759;BME280;66684;47.568;18.734;2023-07-02T12:38:50;98709.66;;;26.34;51.57
51759;BME280;66684;47.568;18.734;2023-07-02T12:41:15;98693.47;;;26.87;51.87
51759;BME280;66684;47.568;18.734;2023-07-02T12:43:41;98692.44;;;27.56;50.49
51759;BME280;66684;47.568;18.734;2023-07-02T12:46:07;98684.38;;;27.79;48.38
51759;BME280;66684;47.568;18.734;2023-07-02T12:48:33;98688.00;;;28.16;48.74
51759;BME280;66684;47.568;18.734;2023-07-02T12:51:00;98691.00;;;28.29;48.07
51759;BME280;66684;47.568;18.734;2023-07-02T12:53:26;98690.50;;;28.39;46.31